METAR Data

Data at: 1740 UTC 21 Nov 2018

METAR for:KMLT (Millinocket Muni, ME, US)
Text:KMLT 211653Z AUTO VRB03KT 10SM FEW029 SCT060 OVC110 M03/M09 A2976 RMK AO2 SLP089 T10281094
Temperature: -2.8°C ( 27°F)
Dewpoint: -9.4°C ( 15°F) [RH = 60%]
Pressure (altimeter):29.76 inches Hg (1007.9 mb) [Sea level pressure: 1008.9 mb]
Winds:variable direction winds at 3 MPH (3 knots; 1.5 m/s)
Visibility:10 or more sm (16+ km)
Ceiling:11000 feet AGL
Clouds: few clouds at 2900 feet AGL, scattered clouds at 6000 feet AGL, overcast cloud deck at 11000 feet AGL
QC Flag:automated observation with no human augmentation